sensor_id;sensor_type;location;lat;lon;timestamp;P1;durP1;ratioP1;P2;durP2;ratioP2
74059;SDS011;62414;53.436;8.828;2022-10-23T00:00:46;27.37;;;12.07;;
74059;SDS011;62414;53.436;8.828;2022-10-23T00:03:11;31.43;;;13.23;;
74059;SDS011;62414;53.436;8.828;2022-10-23T00:05:38;29.77;;;12.93;;
74059;SDS011;62414;53.436;8.828;2022-10-23T00:08:04;25.98;;;11.45;;
74059;SDS011;62414;53.436;8.828;2022-10-23T00:10:29;26.83;;;12.20;;
74059;SDS011;62414;53.436;8.828;2022-10-23T00:12:56;26.83;;;10.45;;
74059;SDS011;62414;53.436;8.828;2022-10-23T00:15:21;22.55;;;9.82;;
74059;SDS011;62414;53.436;8.828;2022-10-23T00:17:47;21.27;;;10.43;;
74059;SDS011;62414;53.436;8.828;2022-10-23T00:20:13;22.67;;;10.73;;
74059;SDS011;62414;53.436;8.828;2022-10-23T00:22:40;21.83;;;10.23;;
74059;SDS011;62414;53.436;8.828;2022-10-23T00:25:07;22.70;;;9.93;;
74059;SDS011;62414;53.436;8.828;2022-10-23T00:27:33;20.75;;;10.00;;
74059;SDS011;62414;53.436;8.828;2022-10-23T00:30:00;20.13;;;9.68;;
74059;SDS011;62414;53.436;8.828;2022-10-23T00:32:27;21.15;;;10.15;;
74059;SDS011;62414;53.436;8.828;2022-10-23T00:34:52;16.10;;;8.90;;
74059;SDS011;62414;53.436;8.828;2022-10-23T00:37:18;18.17;;;8.98;;
74059;SDS011;62414;53.436;8.828;2022-10-23T00:39:44;17.63;;;9.33;;
74059;SDS011;62414;53.436;8.828;2022-10-23T00:42:10;18.90;;;8.85;;
74059;SDS011;62414;53.436;8.828;2022-10-23T00:47:43;21.37;;;9.27;;
74059;SDS011;62414;53.436;8.828;2022-10-23T00:50:08;19.02;;;8.57;;
74059;SDS011;62414;53.436;8.828;2022-10-23T00:52:34;17.05;;;8.55;;
74059;SDS011;62414;53.436;8.828;2022-10-23T00:55:04;16.00;;;8.60;;
74059;SDS011;62414;53.436;8.828;2022-10-23T00:57:30;15.75;;;8.35;;
74059;SDS011;62414;53.436;8.828;2022-10-23T00:59:56;17.17;;;8.63;;
74059;SDS011;62414;53.436;8.828;2022-10-23T01:02:21;19.47;;;9.97;;
74059;SDS011;62414;53.436;8.828;2022-10-23T01:04:49;19.40;;;9.38;;
74059;SDS011;62414;53.436;8.828;2022-10-23T01:07:16;18.30;;;8.95;;
74059;SDS011;62414;53.436;8.828;2022-10-23T01:09:48;17.07;;;8.90;;
74059;SDS011;62414;53.436;8.828;2022-10-23T01:12:23;19.02;;;8.65;;
74059;SDS011;62414;53.436;8.828;2022-10-23T01:14:55;16.13;;;7.95;;
74059;SDS011;62414;53.436;8.828;2022-10-23T01:17:31;17.20;;;8.35;;
74059;SDS011;62414;53.436;8.828;2022-10-23T01:20:06;17.13;;;8.65;;
74059;SDS011;62414;53.436;8.828;2022-10-23T01:22:45;15.27;;;8.17;;
74059;SDS011;62414;53.436;8.828;2022-10-23T01:25:20;16.48;;;8.20;;
74059;SDS011;62414;53.436;8.828;2022-10-23T01:27:54;17.33;;;8.30;;
74059;SDS011;62414;53.436;8.828;2022-10-23T01:30:23;19.63;;;9.05;;
74059;SDS011;62414;53.436;8.828;2022-10-23T01:32:50;17.63;;;9.27;;
74059;SDS011;62414;53.436;8.828;2022-10-23T01:35:19;22.03;;;9.90;;
74059;SDS011;62414;53.436;8.828;2022-10-23T01:37:57;19.45;;;9.95;;
74059;SDS011;62414;53.436;8.828;2022-10-23T01:40:28;24.13;;;11.23;;
74059;SDS011;62414;53.436;8.828;2022-10-23T01:42:58;28.88;;;12.77;;
74059;SDS011;62414;53.436;8.828;2022-10-23T01:45:31;25.63;;;12.60;;
74059;SDS011;62414;53.436;8.828;2022-10-23T01:48:00;26.13;;;12.97;;
74059;SDS011;62414;53.436;8.828;2022-10-23T01:50:28;28.10;;;13.30;;
74059;SDS011;62414;53.436;8.828;2022-10-23T01:52:59;25.70;;;12.55;;
74059;SDS011;62414;53.436;8.828;2022-10-23T01:55:25;25.00;;;13.37;;
74059;SDS011;62414;53.436;8.828;2022-10-23T01:57:52;31.77;;;13.32;;
74059;SDS011;62414;53.436;8.828;2022-10-23T02:00:20;29.95;;;13.65;;
74059;SDS011;62414;53.436;8.828;2022-10-23T02:02:52;28.35;;;12.82;;
74059;SDS011;62414;53.436;8.828;2022-10-23T02:05:25;31.10;;;13.65;;
74059;SDS011;62414;53.436;8.828;2022-10-23T02:07:53;32.67;;;13.23;;
74059;SDS011;62414;53.436;8.828;2022-10-23T02:10:20;41.03;;;13.05;;
74059;SDS011;62414;53.436;8.828;2022-10-23T02:12:48;33.65;;;12.25;;
74059;SDS011;62414;53.436;8.828;2022-10-23T02:15:24;31.85;;;13.30;;
74059;SDS011;62414;53.436;8.828;2022-10-23T02:17:56;30.40;;;13.18;;
74059;SDS011;62414;53.436;8.828;2022-10-23T02:20:32;34.60;;;12.50;;
74059;SDS011;62414;53.436;8.828;2022-10-23T02:23:02;29.75;;;12.60;;
74059;SDS011;62414;53.436;8.828;2022-10-23T02:25:35;33.75;;;13.45;;
74059;SDS011;62414;53.436;8.828;2022-10-23T02:28:06;34.25;;;13.70;;
74059;SDS011;62414;53.436;8.828;2022-10-23T02:30:42;30.42;;;14.00;;
74059;SDS011;62414;53.436;8.828;2022-10-23T02:33:11;28.43;;;12.90;;
74059;SDS011;62414;53.436;8.828;2022-10-23T02:35:38;24.55;;;12.70;;
74059;SDS011;62414;53.436;8.828;2022-10-23T02:38:33;36.88;;;13.30;;
74059;SDS011;62414;53.436;8.828;2022-10-23T02:41:05;29.10;;;13.20;;
74059;SDS011;62414;53.436;8.828;2022-10-23T02:43:39;30.85;;;13.40;;
74059;SDS011;62414;53.436;8.828;2022-10-23T02:46:11;29.07;;;13.20;;
74059;SDS011;62414;53.436;8.828;2022-10-23T02:48:43;27.35;;;12.65;;
74059;SDS011;62414;53.436;8.828;2022-10-23T02:51:17;30.52;;;12.38;;
74059;SDS011;62414;53.436;8.828;2022-10-23T02:53:48;27.00;;;12.32;;
74059;SDS011;62414;53.436;8.828;2022-10-23T02:56:20;25.40;;;12.35;;
74059;SDS011;62414;53.436;8.828;2022-10-23T02:58:54;24.70;;;11.67;;
74059;SDS011;62414;53.436;8.828;2022-10-23T03:01:28;27.10;;;12.00;;
74059;SDS011;62414;53.436;8.828;2022-10-23T03:04:00;23.80;;;11.20;;
74059;SDS011;62414;53.436;8.828;2022-10-23T03:06:31;25.42;;;12.02;;
74059;SDS011;62414;53.436;8.828;2022-10-23T03:08:57;27.70;;;12.55;;
74059;SDS011;62414;53.436;8.828;2022-10-23T03:11:25;25.17;;;11.40;;
74059;SDS011;62414;53.436;8.828;2022-10-23T03:13:50;28.50;;;12.07;;
74059;SDS011;62414;53.436;8.828;2022-10-23T03:16:16;26.90;;;12.07;;
74059;SDS011;62414;53.436;8.828;2022-10-23T03:18:49;26.02;;;11.98;;
74059;SDS011;62414;53.436;8.828;2022-10-23T03:21:14;23.75;;;10.98;;
74059;SDS011;62414;53.436;8.828;2022-10-23T03:23:40;23.03;;;11.20;;
74059;SDS011;62414;53.436;8.828;2022-10-23T03:26:05;24.73;;;10.53;;
74059;SDS011;62414;53.436;8.828;2022-10-23T03:28:36;22.92;;;11.02;;
74059;SDS011;62414;53.436;8.828;2022-10-23T03:31:01;22.67;;;11.43;;
74059;SDS011;62414;53.436;8.828;2022-10-23T03:33:27;26.27;;;12.23;;
74059;SDS011;62414;53.436;8.828;2022-10-23T03:35:54;27.58;;;12.55;;
74059;SDS011;62414;53.436;8.828;2022-10-23T03:38:20;30.43;;;12.50;;
74059;SDS011;62414;53.436;8.828;2022-10-23T03:40:45;27.80;;;12.48;;
74059;SDS011;62414;53.436;8.828;2022-10-23T03:43:11;26.73;;;11.88;;
74059;SDS011;62414;53.436;8.828;2022-10-23T03:45:38;25.27;;;11.93;;
74059;SDS011;62414;53.436;8.828;2022-10-23T03:48:03;25.45;;;11.73;;
74059;SDS011;62414;53.436;8.828;2022-10-23T03:50:31;27.33;;;11.75;;
74059;SDS011;62414;53.436;8.828;2022-10-23T03:52:58;20.83;;;10.53;;
74059;SDS011;62414;53.436;8.828;2022-10-23T03:55:23;23.33;;;11.27;;
74059;SDS011;62414;53.436;8.828;2022-10-23T03:57:51;25.08;;;11.25;;
74059;SDS011;62414;53.436;8.828;2022-10-23T04:00:18;27.27;;;12.63;;
74059;SDS011;62414;53.436;8.828;2022-10-23T04:02:45;30.05;;;12.77;;
74059;SDS011;62414;53.436;8.828;2022-10-23T04:05:11;32.38;;;12.70;;
74059;SDS011;62414;53.436;8.828;2022-10-23T04:07:38;28.33;;;12.27;;
74059;SDS011;62414;53.436;8.828;2022-10-23T04:10:06;27.58;;;12.15;;
74059;SDS011;62414;53.436;8.828;2022-10-23T04:12:32;24.40;;;10.93;;
74059;SDS011;62414;53.436;8.828;2022-10-23T04:14:57;24.23;;;11.33;;
74059;SDS011;62414;53.436;8.828;2022-10-23T04:17:23;22.77;;;10.30;;
74059;SDS011;62414;53.436;8.828;2022-10-23T04:19:48;23.27;;;11.00;;
74059;SDS011;62414;53.436;8.828;2022-10-23T04:22:14;20.80;;;10.43;;
74059;SDS011;62414;53.436;8.828;2022-10-23T04:24:39;20.52;;;10.73;;
74059;SDS011;62414;53.436;8.828;2022-10-23T04:27:06;20.87;;;10.40;;
74059;SDS011;62414;53.436;8.828;2022-10-23T04:29:32;22.42;;;10.45;;
74059;SDS011;62414;53.436;8.828;2022-10-23T04:31:57;22.23;;;10.23;;
74059;SDS011;62414;53.436;8.828;2022-10-23T04:34:23;20.05;;;9.80;;
74059;SDS011;62414;53.436;8.828;2022-10-23T04:36:51;18.63;;;9.93;;
74059;SDS011;62414;53.436;8.828;2022-10-23T04:39:16;22.77;;;10.63;;
74059;SDS011;62414;53.436;8.828;2022-10-23T04:41:42;19.40;;;10.50;;
74059;SDS011;62414;53.436;8.828;2022-10-23T04:44:08;21.63;;;10.87;;
74059;SDS011;62414;53.436;8.828;2022-10-23T04:46:37;23.77;;;11.25;;
74059;SDS011;62414;53.436;8.828;2022-10-23T04:49:03;22.58;;;11.20;;
74059;SDS011;62414;53.436;8.828;2022-10-23T04:51:47;23.17;;;10.93;;
74059;SDS011;62414;53.436;8.828;2022-10-23T04:54:34;20.90;;;10.15;;
74059;SDS011;62414;53.436;8.828;2022-10-23T04:57:12;21.73;;;10.30;;
74059;SDS011;62414;53.436;8.828;2022-10-23T04:59:59;18.40;;;9.43;;
74059;SDS011;62414;53.436;8.828;2022-10-23T05:02:25;19.50;;;10.00;;
74059;SDS011;62414;53.436;8.828;2022-10-23T05:04:51;21.15;;;9.90;;
74059;SDS011;62414;53.436;8.828;2022-10-23T05:07:32;23.75;;;10.52;;
74059;SDS011;62414;53.436;8.828;2022-10-23T05:10:10;22.07;;;11.23;;
74059;SDS011;62414;53.436;8.828;2022-10-23T05:12:41;21.77;;;10.57;;
74059;SDS011;62414;53.436;8.828;2022-10-23T05:15:09;19.87;;;10.27;;
74059;SDS011;62414;53.436;8.828;2022-10-23T05:17:35;24.45;;;11.60;;
74059;SDS011;62414;53.436;8.828;2022-10-23T05:20:04;24.70;;;11.60;;
74059;SDS011;62414;53.436;8.828;2022-10-23T05:22:34;23.25;;;10.85;;
74059;SDS011;62414;53.436;8.828;2022-10-23T05:25:05;20.85;;;10.55;;
74059;SDS011;62414;53.436;8.828;2022-10-23T05:27:32;28.80;;;12.77;;
74059;SDS011;62414;53.436;8.828;2022-10-23T05:29:58;32.50;;;13.88;;
74059;SDS011;62414;53.436;8.828;2022-10-23T05:32:28;33.73;;;14.17;;
74059;SDS011;62414;53.436;8.828;2022-10-23T05:34:56;31.63;;;14.00;;
74059;SDS011;62414;53.436;8.828;2022-10-23T05:37:26;33.75;;;15.02;;
74059;SDS011;62414;53.436;8.828;2022-10-23T05:40:01;35.90;;;15.23;;
74059;SDS011;62414;53.436;8.828;2022-10-23T05:42:28;36.78;;;15.80;;
74059;SDS011;62414;53.436;8.828;2022-10-23T05:44:58;35.10;;;16.03;;
74059;SDS011;62414;53.436;8.828;2022-10-23T05:47:43;37.17;;;16.75;;
74059;SDS011;62414;53.436;8.828;2022-10-23T05:50:21;36.28;;;15.50;;
74059;SDS011;62414;53.436;8.828;2022-10-23T05:53:05;35.95;;;16.15;;
74059;SDS011;62414;53.436;8.828;2022-10-23T05:56:03;37.17;;;16.25;;
74059;SDS011;62414;53.436;8.828;2022-10-23T05:58:43;42.83;;;16.43;;
74059;SDS011;62414;53.436;8.828;2022-10-23T06:01:18;40.33;;;16.58;;
74059;SDS011;62414;53.436;8.828;2022-10-23T06:04:00;38.67;;;15.30;;
74059;SDS011;62414;53.436;8.828;2022-10-23T06:06:46;37.35;;;15.43;;
74059;SDS011;62414;53.436;8.828;2022-10-23T06:09:12;41.80;;;16.23;;
74059;SDS011;62414;53.436;8.828;2022-10-23T06:11:39;35.25;;;15.25;;
74059;SDS011;62414;53.436;8.828;2022-10-23T06:14:11;35.65;;;15.57;;
74059;SDS011;62414;53.436;8.828;2022-10-23T06:16:37;38.30;;;15.10;;
74059;SDS011;62414;53.436;8.828;2022-10-23T06:19:04;41.73;;;15.50;;
74059;SDS011;62414;53.436;8.828;2022-10-23T06:21:31;36.08;;;15.15;;
74059;SDS011;62414;53.436;8.828;2022-10-23T06:24:02;34.28;;;14.80;;
74059;SDS011;62414;53.436;8.828;2022-10-23T06:26:34;32.80;;;14.27;;
74059;SDS011;62414;53.436;8.828;2022-10-23T06:29:08;32.80;;;14.10;;
74059;SDS011;62414;53.436;8.828;2022-10-23T06:31:34;35.65;;;14.88;;
74059;SDS011;62414;53.436;8.828;2022-10-23T06:34:01;35.20;;;14.88;;
74059;SDS011;62414;53.436;8.828;2022-10-23T06:36:29;37.53;;;14.98;;
74059;SDS011;62414;53.436;8.828;2022-10-23T06:39:04;34.70;;;14.57;;
74059;SDS011;62414;53.436;8.828;2022-10-23T06:41:48;30.53;;;13.80;;
74059;SDS011;62414;53.436;8.828;2022-10-23T06:44:33;33.00;;;13.80;;
74059;SDS011;62414;53.436;8.828;2022-10-23T06:47:06;33.25;;;13.80;;
74059;SDS011;62414;53.436;8.828;2022-10-23T06:49:52;31.58;;;13.35;;
74059;SDS011;62414;53.436;8.828;2022-10-23T06:52:17;32.65;;;14.55;;
74059;SDS011;62414;53.436;8.828;2022-10-23T06:54:43;34.20;;;14.73;;
74059;SDS011;62414;53.436;8.828;2022-10-23T06:57:18;31.45;;;13.55;;
74059;SDS011;62414;53.436;8.828;2022-10-23T06:59:45;33.38;;;13.77;;
74059;SDS011;62414;53.436;8.828;2022-10-23T07:02:10;32.23;;;13.77;;
74059;SDS011;62414;53.436;8.828;2022-10-23T07:04:37;31.95;;;12.80;;
74059;SDS011;62414;53.436;8.828;2022-10-23T07:07:10;30.20;;;12.52;;
74059;SDS011;62414;53.436;8.828;2022-10-23T07:09:44;30.57;;;12.90;;
74059;SDS011;62414;53.436;8.828;2022-10-23T07:12:20;29.55;;;12.40;;
74059;SDS011;62414;53.436;8.828;2022-10-23T07:14:52;31.75;;;12.73;;
74059;SDS011;62414;53.436;8.828;2022-10-23T07:17:18;28.90;;;11.60;;
74059;SDS011;62414;53.436;8.828;2022-10-23T07:19:44;28.50;;;11.73;;
74059;SDS011;62414;53.436;8.828;2022-10-23T07:22:12;24.73;;;10.90;;
74059;SDS011;62414;53.436;8.828;2022-10-23T07:24:53;25.67;;;10.77;;
74059;SDS011;62414;53.436;8.828;2022-10-23T07:27:23;28.67;;;11.48;;
74059;SDS011;62414;53.436;8.828;2022-10-23T07:29:54;25.67;;;10.90;;
74059;SDS011;62414;53.436;8.828;2022-10-23T07:32:20;24.60;;;10.70;;
74059;SDS011;62414;53.436;8.828;2022-10-23T07:35:00;26.27;;;10.52;;
74059;SDS011;62414;53.436;8.828;2022-10-23T07:37:30;23.53;;;10.70;;
74059;SDS011;62414;53.436;8.828;2022-10-23T07:39:59;22.92;;;10.60;;
74059;SDS011;62414;53.436;8.828;2022-10-23T07:42:24;21.50;;;10.50;;
74059;SDS011;62414;53.436;8.828;2022-10-23T07:44:50;23.73;;;9.70;;
74059;SDS011;62414;53.436;8.828;2022-10-23T07:47:15;22.77;;;9.23;;
74059;SDS011;62414;53.436;8.828;2022-10-23T07:49:44;20.92;;;9.55;;
74059;SDS011;62414;53.436;8.828;2022-10-23T07:52:11;24.70;;;9.75;;
74059;SDS011;62414;53.436;8.828;2022-10-23T07:54:58;20.95;;;9.27;;
74059;SDS011;62414;53.436;8.828;2022-10-23T07:57:26;22.63;;;9.13;;
74059;SDS011;62414;53.436;8.828;2022-10-23T08:00:06;19.70;;;9.20;;
74059;SDS011;62414;53.436;8.828;2022-10-23T08:02:38;20.02;;;8.82;;
74059;SDS011;62414;53.436;8.828;2022-10-23T08:05:06;20.25;;;8.95;;
74059;SDS011;62414;53.436;8.828;2022-10-23T08:07:38;20.83;;;9.30;;
74059;SDS011;62414;53.436;8.828;2022-10-23T08:10:06;18.77;;;8.60;;
74059;SDS011;62414;53.436;8.828;2022-10-23T08:12:33;19.13;;;8.57;;
74059;SDS011;62414;53.436;8.828;2022-10-23T08:14:59;18.83;;;8.90;;
74059;SDS011;62414;53.436;8.828;2022-10-23T08:17:32;18.25;;;8.57;;
74059;SDS011;62414;53.436;8.828;2022-10-23T08:20:05;21.40;;;9.20;;
74059;SDS011;62414;53.436;8.828;2022-10-23T08:22:37;18.10;;;7.70;;
74059;SDS011;62414;53.436;8.828;2022-10-23T08:25:03;16.57;;;8.30;;
74059;SDS011;62414;53.436;8.828;2022-10-23T08:27:30;18.92;;;8.23;;
74059;SDS011;62414;53.436;8.828;2022-10-23T08:29:56;18.38;;;8.40;;
74059;SDS011;62414;53.436;8.828;2022-10-23T08:32:22;16.97;;;8.13;;
74059;SDS011;62414;53.436;8.828;2022-10-23T08:34:54;20.90;;;8.30;;
74059;SDS011;62414;53.436;8.828;2022-10-23T08:37:22;16.30;;;7.63;;
74059;SDS011;62414;53.436;8.828;2022-10-23T08:39:47;15.83;;;7.67;;
74059;SDS011;62414;53.436;8.828;2022-10-23T08:42:18;16.50;;;7.53;;
74059;SDS011;62414;53.436;8.828;2022-10-23T08:44:49;17.58;;;7.55;;
74059;SDS011;62414;53.436;8.828;2022-10-23T08:47:22;16.67;;;7.80;;
74059;SDS011;62414;53.436;8.828;2022-10-23T08:50:27;15.75;;;7.78;;
74059;SDS011;62414;53.436;8.828;2022-10-23T08:52:57;14.33;;;6.87;;
74059;SDS011;62414;53.436;8.828;2022-10-23T08:55:28;13.75;;;6.82;;
74059;SDS011;62414;53.436;8.828;2022-10-23T08:57:59;13.52;;;6.80;;
74059;SDS011;62414;53.436;8.828;2022-10-23T09:00:30;16.15;;;7.10;;
74059;SDS011;62414;53.436;8.828;2022-10-23T09:02:59;15.45;;;7.25;;
74059;SDS011;62414;53.436;8.828;2022-10-23T09:05:26;18.97;;;7.60;;
74059;SDS011;62414;53.436;8.828;2022-10-23T09:07:58;17.42;;;7.78;;
74059;SDS011;62414;53.436;8.828;2022-10-23T09:10:36;17.63;;;8.82;;
74059;SDS011;62414;53.436;8.828;2022-10-23T09:13:31;15.95;;;7.30;;
74059;SDS011;62414;53.436;8.828;2022-10-23T09:16:22;14.45;;;7.32;;
74059;SDS011;62414;53.436;8.828;2022-10-23T09:18:56;15.73;;;8.03;;
74059;SDS011;62414;53.436;8.828;2022-10-23T09:21:24;22.05;;;11.68;;
74059;SDS011;62414;53.436;8.828;2022-10-23T09:23:50;16.35;;;10.00;;
74059;SDS011;62414;53.436;8.828;2022-10-23T09:26:16;19.37;;;10.53;;
74059;SDS011;62414;53.436;8.828;2022-10-23T09:28:44;14.38;;;8.93;;
74059;SDS011;62414;53.436;8.828;2022-10-23T09:31:12;14.07;;;7.80;;
74059;SDS011;62414;53.436;8.828;2022-10-23T09:33:39;15.38;;;7.40;;
74059;SDS011;62414;53.436;8.828;2022-10-23T09:36:06;15.10;;;6.80;;
74059;SDS011;62414;53.436;8.828;2022-10-23T09:38:33;11.27;;;5.45;;
74059;SDS011;62414;53.436;8.828;2022-10-23T09:41:01;13.00;;;6.20;;
74059;SDS011;62414;53.436;8.828;2022-10-23T09:43:30;11.93;;;5.35;;
74059;SDS011;62414;53.436;8.828;2022-10-23T09:46:02;12.63;;;6.00;;
74059;SDS011;62414;53.436;8.828;2022-10-23T09:48:29;16.03;;;6.80;;
74059;SDS011;62414;53.436;8.828;2022-10-23T09:50:57;13.95;;;7.50;;
74059;SDS011;62414;53.436;8.828;2022-10-23T09:53:26;14.93;;;6.95;;
74059;SDS011;62414;53.436;8.828;2022-10-23T09:55:55;12.50;;;6.87;;
74059;SDS011;62414;53.436;8.828;2022-10-23T09:58:26;13.70;;;6.47;;
74059;SDS011;62414;53.436;8.828;2022-10-23T10:00:55;17.30;;;9.65;;
74059;SDS011;62414;53.436;8.828;2022-10-23T10:03:37;12.40;;;6.50;;
74059;SDS011;62414;53.436;8.828;2022-10-23T10:06:19;12.43;;;6.60;;
74059;SDS011;62414;53.436;8.828;2022-10-23T10:08:48;13.20;;;6.03;;
74059;SDS011;62414;53.436;8.828;2022-10-23T10:11:16;12.38;;;5.88;;
74059;SDS011;62414;53.436;8.828;2022-10-23T10:13:55;12.38;;;5.43;;
74059;SDS011;62414;53.436;8.828;2022-10-23T10:16:31;12.93;;;5.28;;
74059;SDS011;62414;53.436;8.828;2022-10-23T10:19:09;11.00;;;5.05;;
74059;SDS011;62414;53.436;8.828;2022-10-23T10:21:49;12.70;;;5.30;;
74059;SDS011;62414;53.436;8.828;2022-10-23T10:24:20;12.07;;;5.05;;
74059;SDS011;62414;53.436;8.828;2022-10-23T10:26:54;10.90;;;5.00;;
74059;SDS011;62414;53.436;8.828;2022-10-23T10:29:33;11.30;;;5.32;;
74059;SDS011;62414;53.436;8.828;2022-10-23T10:32:11;10.40;;;4.93;;
74059;SDS011;62414;53.436;8.828;2022-10-23T10:34:49;14.80;;;6.17;;
74059;SDS011;62414;53.436;8.828;2022-10-23T10:37:28;10.77;;;5.30;;
74059;SDS011;62414;53.436;8.828;2022-10-23T10:40:07;9.60;;;4.63;;
74059;SDS011;62414;53.436;8.828;2022-10-23T10:42:43;9.77;;;4.97;;
74059;SDS011;62414;53.436;8.828;2022-10-23T10:45:24;17.85;;;11.55;;
74059;SDS011;62414;53.436;8.828;2022-10-23T10:51:21;13.73;;;6.57;;
74059;SDS011;62414;53.436;8.828;2022-10-23T10:53:57;13.77;;;5.93;;
74059;SDS011;62414;53.436;8.828;2022-10-23T10:56:32;17.42;;;9.10;;
74059;SDS011;62414;53.436;8.828;2022-10-23T10:59:03;18.33;;;9.25;;
74059;SDS011;62414;53.436;8.828;2022-10-23T11:01:35;22.57;;;13.10;;
74059;SDS011;62414;53.436;8.828;2022-10-23T11:04:10;13.15;;;7.13;;
74059;SDS011;62414;53.436;8.828;2022-10-23T11:06:42;13.85;;;7.47;;
74059;SDS011;62414;53.436;8.828;2022-10-23T11:09:13;16.77;;;9.27;;
74059;SDS011;62414;53.436;8.828;2022-10-23T11:11:41;18.60;;;7.90;;
74059;SDS011;62414;53.436;8.828;2022-10-23T11:14:11;12.83;;;7.40;;
74059;SDS011;62414;53.436;8.828;2022-10-23T11:16:39;11.55;;;5.18;;
74059;SDS011;62414;53.436;8.828;2022-10-23T11:19:10;12.23;;;5.30;;
74059;SDS011;62414;53.436;8.828;2022-10-23T11:21:41;11.33;;;5.00;;
74059;SDS011;62414;53.436;8.828;2022-10-23T11:24:19;9.63;;;4.60;;
74059;SDS011;62414;53.436;8.828;2022-10-23T11:27:05;12.38;;;5.68;;
74059;SDS011;62414;53.436;8.828;2022-10-23T11:29:48;11.25;;;4.63;;
74059;SDS011;62414;53.436;8.828;2022-10-23T11:32:28;13.43;;;5.20;;
74059;SDS011;62414;53.436;8.828;2022-10-23T11:35:11;11.57;;;5.00;;
74059;SDS011;62414;53.436;8.828;2022-10-23T11:37:44;11.60;;;5.70;;
74059;SDS011;62414;53.436;8.828;2022-10-23T11:40:19;10.90;;;4.43;;
74059;SDS011;62414;53.436;8.828;2022-10-23T11:42:46;11.73;;;4.75;;
74059;SDS011;62414;53.436;8.828;2022-10-23T11:45:32;9.98;;;4.45;;
74059;SDS011;62414;53.436;8.828;2022-10-23T11:48:00;9.85;;;4.60;;
74059;SDS011;62414;53.436;8.828;2022-10-23T11:50:28;12.05;;;4.38;;
74059;SDS011;62414;53.436;8.828;2022-10-23T11:52:59;8.60;;;4.33;;
74059;SDS011;62414;53.436;8.828;2022-10-23T11:55:31;9.10;;;4.38;;
74059;SDS011;62414;53.436;8.828;2022-10-23T12:00:50;8.13;;;3.97;;
74059;SDS011;62414;53.436;8.828;2022-10-23T12:03:19;7.65;;;3.70;;
74059;SDS011;62414;53.436;8.828;2022-10-23T12:05:54;9.80;;;3.30;;
74059;SDS011;62414;53.436;8.828;2022-10-23T12:08:22;7.85;;;3.50;;
74059;SDS011;62414;53.436;8.828;2022-10-23T12:10:52;12.65;;;3.55;;
74059;SDS011;62414;53.436;8.828;2022-10-23T12:13:27;7.72;;;3.45;;
74059;SDS011;62414;53.436;8.828;2022-10-23T12:15:55;7.50;;;3.33;;
74059;SDS011;62414;53.436;8.828;2022-10-23T12:18:21;8.57;;;3.20;;
74059;SDS011;62414;53.436;8.828;2022-10-23T12:20:48;8.77;;;3.42;;
74059;SDS011;62414;53.436;8.828;2022-10-23T12:23:25;8.98;;;3.40;;
74059;SDS011;62414;53.436;8.828;2022-10-23T12:26:10;9.70;;;3.30;;
74059;SDS011;62414;53.436;8.828;2022-10-23T12:28:47;8.13;;;3.35;;
74059;SDS011;62414;53.436;8.828;2022-10-23T12:31:20;13.10;;;3.95;;
74059;SDS011;62414;53.436;8.828;2022-10-23T12:33:53;9.75;;;3.10;;
74059;SDS011;62414;53.436;8.828;2022-10-23T12:39:28;9.90;;;3.57;;
74059;SDS011;62414;53.436;8.828;2022-10-23T12:41:56;11.05;;;4.45;;
74059;SDS011;62414;53.436;8.828;2022-10-23T12:44:23;8.18;;;3.60;;
74059;SDS011;62414;53.436;8.828;2022-10-23T12:46:50;9.38;;;3.65;;
74059;SDS011;62414;53.436;8.828;2022-10-23T12:49:18;9.85;;;3.50;;
74059;SDS011;62414;53.436;8.828;2022-10-23T12:51:45;8.67;;;3.80;;
74059;SDS011;62414;53.436;8.828;2022-10-23T12:54:19;8.40;;;3.50;;
74059;SDS011;62414;53.436;8.828;2022-10-23T12:56:45;8.60;;;4.00;;
74059;SDS011;62414;53.436;8.828;2022-10-23T12:59:14;10.82;;;3.63;;
74059;SDS011;62414;53.436;8.828;2022-10-23T13:01:42;9.52;;;3.88;;
74059;SDS011;62414;53.436;8.828;2022-10-23T13:04:10;10.53;;;3.40;;
74059;SDS011;62414;53.436;8.828;2022-10-23T13:06:45;11.70;;;3.78;;
74059;SDS011;62414;53.436;8.828;2022-10-23T13:09:15;9.98;;;3.50;;
74059;SDS011;62414;53.436;8.828;2022-10-23T13:12:06;10.90;;;3.70;;
74059;SDS011;62414;53.436;8.828;2022-10-23T13:14:35;9.90;;;3.28;;
74059;SDS011;62414;53.436;8.828;2022-10-23T13:17:04;10.13;;;3.60;;
74059;SDS011;62414;53.436;8.828;2022-10-23T13:19:31;8.73;;;3.60;;
74059;SDS011;62414;53.436;8.828;2022-10-23T13:21:57;10.55;;;3.80;;
74059;SDS011;62414;53.436;8.828;2022-10-23T13:24:24;7.67;;;3.73;;
74059;SDS011;62414;53.436;8.828;2022-10-23T13:26:51;9.43;;;3.67;;
74059;SDS011;62414;53.436;8.828;2022-10-23T13:29:18;12.47;;;3.70;;
74059;SDS011;62414;53.436;8.828;2022-10-23T13:31:46;9.38;;;3.70;;
74059;SDS011;62414;53.436;8.828;2022-10-23T13:34:23;7.32;;;3.58;;
74059;SDS011;62414;53.436;8.828;2022-10-23T13:36:59;9.75;;;3.17;;
74059;SDS011;62414;53.436;8.828;2022-10-23T13:39:27;9.27;;;3.53;;
74059;SDS011;62414;53.436;8.828;2022-10-23T13:41:54;7.57;;;3.90;;
74059;SDS011;62414;53.436;8.828;2022-10-23T13:44:21;10.05;;;3.75;;
74059;SDS011;62414;53.436;8.828;2022-10-23T13:46:49;12.77;;;4.25;;
74059;SDS011;62414;53.436;8.828;2022-10-23T13:49:15;11.82;;;5.40;;
74059;SDS011;62414;53.436;8.828;2022-10-23T13:51:43;9.65;;;4.03;;
74059;SDS011;62414;53.436;8.828;2022-10-23T13:54:12;9.57;;;3.90;;
74059;SDS011;62414;53.436;8.828;2022-10-23T13:56:40;10.13;;;3.80;;
74059;SDS011;62414;53.436;8.828;2022-10-23T13:59:06;9.82;;;4.00;;
74059;SDS011;62414;53.436;8.828;2022-10-23T14:01:33;9.13;;;3.60;;
74059;SDS011;62414;53.436;8.828;2022-10-23T14:04:00;9.85;;;4.18;;
74059;SDS011;62414;53.436;8.828;2022-10-23T14:06:26;11.43;;;4.40;;
74059;SDS011;62414;53.436;8.828;2022-10-23T14:08:52;10.07;;;5.10;;
74059;SDS011;62414;53.436;8.828;2022-10-23T14:11:17;11.13;;;4.38;;
74059;SDS011;62414;53.436;8.828;2022-10-23T14:13:44;9.90;;;3.60;;
74059;SDS011;62414;53.436;8.828;2022-10-23T14:16:11;11.75;;;3.95;;
74059;SDS011;62414;53.436;8.828;2022-10-23T14:18:37;9.13;;;4.20;;
74059;SDS011;62414;53.436;8.828;2022-10-23T14:21:07;12.87;;;4.10;;
74059;SDS011;62414;53.436;8.828;2022-10-23T14:23:34;10.38;;;4.13;;
74059;SDS011;62414;53.436;8.828;2022-10-23T14:26:00;10.13;;;3.70;;
74059;SDS011;62414;53.436;8.828;2022-10-23T14:28:26;10.30;;;4.20;;
74059;SDS011;62414;53.436;8.828;2022-10-23T14:30:51;10.88;;;3.78;;
74059;SDS011;62414;53.436;8.828;2022-10-23T14:33:17;9.47;;;3.60;;
74059;SDS011;62414;53.436;8.828;2022-10-23T14:35:42;9.57;;;4.50;;
74059;SDS011;62414;53.436;8.828;2022-10-23T14:38:09;9.33;;;4.30;;
74059;SDS011;62414;53.436;8.828;2022-10-23T14:40:35;9.00;;;3.90;;
74059;SDS011;62414;53.436;8.828;2022-10-23T14:43:01;12.07;;;3.90;;
74059;SDS011;62414;53.436;8.828;2022-10-23T14:45:26;11.07;;;4.47;;
74059;SDS011;62414;53.436;8.828;2022-10-23T14:47:52;9.93;;;4.00;;
74059;SDS011;62414;53.436;8.828;2022-10-23T14:50:17;9.82;;;3.92;;
74059;SDS011;62414;53.436;8.828;2022-10-23T14:52:43;9.57;;;4.60;;
74059;SDS011;62414;53.436;8.828;2022-10-23T14:55:10;8.47;;;3.60;;
74059;SDS011;62414;53.436;8.828;2022-10-23T14:57:35;12.68;;;5.88;;
74059;SDS011;62414;53.436;8.828;2022-10-23T15:00:00;10.80;;;4.10;;
74059;SDS011;62414;53.436;8.828;2022-10-23T15:02:26;16.00;;;4.75;;